sensor_id;sensor_type;location;lat;lon;timestamp;temperature;humidity
42803;DHT22;28447;48.682;9.022;2023-04-25T10:04:41;5.50;99.90
42803;DHT22;28447;48.682;9.022;2023-04-25T10:07:08;5.60;99.90
42803;DHT22;28447;48.682;9.022;2023-04-25T10:09:37;5.70;99.90
42803;DHT22;28447;48.682;9.022;2023-04-25T10:12:05;5.60;99.90
42803;DHT22;28447;48.682;9.022;2023-04-25T10:14:31;5.70;99.90
42803;DHT22;28447;48.682;9.022;2023-04-25T10:17:01;5.50;99.90
42803;DHT22;28447;48.682;9.022;2023-04-25T10:19:27;5.50;99.90
42803;DHT22;28447;48.682;9.022;2023-04-25T10:24:31;5.80;99.90
42803;DHT22;28447;48.682;9.022;2023-04-25T10:26:58;5.80;99.90
42803;DHT22;28447;48.682;9.022;2023-04-25T10:29:27;5.90;99.90
42803;DHT22;28447;48.682;9.022;2023-04-25T10:31:53;6.00;99.90
42803;DHT22;28447;48.682;9.022;2023-04-25T10:34:19;6.00;99.90
42803;DHT22;28447;48.682;9.022;2023-04-25T10:36:50;6.00;99.90
42803;DHT22;28447;48.682;9.022;2023-04-25T10:39:24;5.80;99.90
42803;DHT22;28447;48.682;9.022;2023-04-25T10:41:57;5.80;99.90
42803;DHT22;28447;48.682;9.022;2023-04-25T10:44:29;5.80;99.90
42803;DHT22;28447;48.682;9.022;2023-04-25T10:46:59;5.90;99.90
42803;DHT22;28447;48.682;9.022;2023-04-25T10:49:42;6.20;99.90
42803;DHT22;28447;48.682;9.022;2023-04-25T10:52:15;6.30;99.90
42803;DHT22;28447;48.682;9.022;2023-04-25T10:55:02;6.40;99.90
42803;DHT22;28447;48.682;9.022;2023-04-25T10:57:30;6.00;99.90
42803;DHT22;28447;48.682;9.022;2023-04-25T11:00:20;6.20;99.90
42803;DHT22;28447;48.682;9.022;2023-04-25T11:02:52;6.20;99.90
42803;DHT22;28447;48.682;9.022;2023-04-25T11:05:35;6.20;99.90
42803;DHT22;28447;48.682;9.022;2023-04-25T11:08:02;6.40;99.90
42803;DHT22;28447;48.682;9.022;2023-04-25T11:10:30;6.20;99.90
42803;DHT22;28447;48.682;9.022;2023-04-25T11:12:58;6.20;99.90
42803;DHT22;28447;48.682;9.022;2023-04-25T11:15:26;6.20;99.90
42803;DHT22;28447;48.682;9.022;2023-04-25T11:17:52;6.40;99.90
42803;DHT22;28447;48.682;9.022;2023-04-25T11:20:18;6.40;99.90
42803;DHT22;28447;48.682;9.022;2023-04-25T11:22:46;6.50;99.90
42803;DHT22;28447;48.682;9.022;2023-04-25T11:25:14;6.60;99.90
42803;DHT22;28447;48.682;9.022;2023-04-25T11:27:56;6.70;99.90
42803;DHT22;28447;48.682;9.022;2023-04-25T11:30:24;6.30;99.90
42803;DHT22;28447;48.682;9.022;2023-04-25T11:32:50;6.30;99.90
42803;DHT22;28447;48.682;9.022;2023-04-25T11:35:18;6.60;99.90
42803;DHT22;28447;48.682;9.022;2023-04-25T11:37:44;6.90;99.90
42803;DHT22;28447;48.682;9.022;2023-04-25T11:40:11;7.00;99.90
42803;DHT22;28447;48.682;9.022;2023-04-25T11:42:49;7.10;99.90
42803;DHT22;28447;48.682;9.022;2023-04-25T11:45:15;7.10;99.90
42803;DHT22;28447;48.682;9.022;2023-04-25T11:47:40;7.20;99.90
42803;DHT22;28447;48.682;9.022;2023-04-25T11:50:07;7.20;99.90
42803;DHT22;28447;48.682;9.022;2023-04-25T11:52:42;7.20;99.90
42803;DHT22;28447;48.682;9.022;2023-04-25T11:55:19;7.30;99.90
42803;DHT22;28447;48.682;9.022;2023-04-25T11:57:47;7.20;99.90
42803;DHT22;28447;48.682;9.022;2023-04-25T12:00:21;7.30;99.90
42803;DHT22;28447;48.682;9.022;2023-04-25T12:02:50;7.80;99.90
42803;DHT22;28447;48.682;9.022;2023-04-25T12:05:16;8.30;99.90
42803;DHT22;28447;48.682;9.022;2023-04-25T12:07:42;8.30;99.90
42803;DHT22;28447;48.682;9.022;2023-04-25T12:10:10;8.40;99.90
42803;DHT22;28447;48.682;9.022;2023-04-25T12:12:38;8.10;99.90
42803;DHT22;28447;48.682;9.022;2023-04-25T12:15:18;8.20;99.90
42803;DHT22;28447;48.682;9.022;2023-04-25T12:17:48;8.20;99.90
42803;DHT22;28447;48.682;9.022;2023-04-25T12:20:15;8.10;99.90
42803;DHT22;28447;48.682;9.022;2023-04-25T12:22:42;8.10;99.90
42803;DHT22;28447;48.682;9.022;2023-04-25T12:25:13;8.20;99.90
42803;DHT22;28447;48.682;9.022;2023-04-25T12:27:39;7.70;99.90
42803;DHT22;28447;48.682;9.022;2023-04-25T12:30:09;7.60;99.90
42803;DHT22;28447;48.682;9.022;2023-04-25T12:32:37;7.60;99.90
42803;DHT22;28447;48.682;9.022;2023-04-25T12:35:04;7.90;99.90
42803;DHT22;28447;48.682;9.022;2023-04-25T12:37:31;7.60;99.90
42803;DHT22;28447;48.682;9.022;2023-04-25T12:39:57;7.80;99.90
42803;DHT22;28447;48.682;9.022;2023-04-25T12:42:23;7.70;99.90
42803;DHT22;28447;48.682;9.022;2023-04-25T12:44:48;7.50;99.90
42803;DHT22;28447;48.682;9.022;2023-04-25T12:47:14;7.60;99.90
42803;DHT22;28447;48.682;9.022;2023-04-25T12:49:40;8.00;99.90
42803;DHT22;28447;48.682;9.022;2023-04-25T12:52:06;8.10;99.90
42803;DHT22;28447;48.682;9.022;2023-04-25T12:54:31;8.20;99.90
42803;DHT22;28447;48.682;9.022;2023-04-25T12:56:57;8.00;99.90
42803;DHT22;28447;48.682;9.022;2023-04-25T12:59:23;8.10;99.90
42803;DHT22;28447;48.682;9.022;2023-04-25T13:01:49;8.40;99.90
42803;DHT22;28447;48.682;9.022;2023-04-25T13:04:15;8.30;99.90
42803;DHT22;28447;48.682;9.022;2023-04-25T13:06:41;8.10;99.90
42803;DHT22;28447;48.682;9.022;2023-04-25T13:09:07;8.10;99.90
42803;DHT22;28447;48.682;9.022;2023-04-25T13:11:34;7.80;99.90
42803;DHT22;28447;48.682;9.022;2023-04-25T13:14:00;8.00;99.90
42803;DHT22;28447;48.682;9.022;2023-04-25T13:16:26;8.50;99.90
42803;DHT22;28447;48.682;9.022;2023-04-25T13:18:52;8.70;99.90
42803;DHT22;28447;48.682;9.022;2023-04-25T13:21:17;9.80;99.90
42803;DHT22;28447;48.682;9.022;2023-04-25T13:23:43;10.00;99.90
42803;DHT22;28447;48.682;9.022;2023-04-25T13:26:11;9.50;99.90
42803;DHT22;28447;48.682;9.022;2023-04-25T13:28:37;9.00;99.90
42803;DHT22;28447;48.682;9.022;2023-04-25T13:31:03;8.20;99.90
42803;DHT22;28447;48.682;9.022;2023-04-25T13:33:28;8.50;99.90
42803;DHT22;28447;48.682;9.022;2023-04-25T13:35:55;9.10;99.90
42803;DHT22;28447;48.682;9.022;2023-04-25T13:38:24;9.90;99.90
42803;DHT22;28447;48.682;9.022;2023-04-25T13:40:51;11.10;99.90
42803;DHT22;28447;48.682;9.022;2023-04-25T13:43:20;11.10;99.90
42803;DHT22;28447;48.682;9.022;2023-04-25T13:45:48;10.70;99.90
42803;DHT22;28447;48.682;9.022;2023-04-25T13:48:13;10.60;99.90
42803;DHT22;28447;48.682;9.022;2023-04-25T13:50:40;10.20;99.90
42803;DHT22;28447;48.682;9.022;2023-04-25T13:53:06;10.40;99.90
42803;DHT22;28447;48.682;9.022;2023-04-25T13:55:33;11.20;99.90
42803;DHT22;28447;48.682;9.022;2023-04-25T13:57:59;10.50;99.90
42803;DHT22;28447;48.682;9.022;2023-04-25T14:00:25;10.60;99.90
42803;DHT22;28447;48.682;9.022;2023-04-25T14:02:51;10.40;99.90
42803;DHT22;28447;48.682;9.022;2023-04-25T14:05:18;10.30;99.90
42803;DHT22;28447;48.682;9.022;2023-04-25T14:07:44;11.00;99.90
42803;DHT22;28447;48.682;9.022;2023-04-25T14:10:10;11.80;99.90
42803;DHT22;28447;48.682;9.022;2023-04-25T14:12:37;12.20;99.90
42803;DHT22;28447;48.682;9.022;2023-04-25T14:15:03;12.40;99.90
42803;DHT22;28447;48.682;9.022;2023-04-25T14:17:29;12.00;99.90
42803;DHT22;28447;48.682;9.022;2023-04-25T14:19:55;11.80;99.90
42803;DHT22;28447;48.682;9.022;2023-04-25T14:22:21;11.60;99.90
42803;DHT22;28447;48.682;9.022;2023-04-25T14:24:46;11.50;99.90
42803;DHT22;28447;48.682;9.022;2023-04-25T14:27:12;11.20;99.90
42803;DHT22;28447;48.682;9.022;2023-04-25T14:29:37;10.70;99.90
42803;DHT22;28447;48.682;9.022;2023-04-25T14:32:04;10.30;99.90
42803;DHT22;28447;48.682;9.022;2023-04-25T14:34:30;10.10;99.90
42803;DHT22;28447;48.682;9.022;2023-04-25T14:36:56;10.00;99.90
42803;DHT22;28447;48.682;9.022;2023-04-25T14:39:22;10.10;99.90
42803;DHT22;28447;48.682;9.022;2023-04-25T14:41:49;10.00;99.90
42803;DHT22;28447;48.682;9.022;2023-04-25T14:44:14;9.50;99.90
42803;DHT22;28447;48.682;9.022;2023-04-25T14:46:40;9.70;99.90
42803;DHT22;28447;48.682;9.022;2023-04-25T14:49:06;9.70;99.90
42803;DHT22;28447;48.682;9.022;2023-04-25T14:51:32;9.80;99.90
42803;DHT22;28447;48.682;9.022;2023-04-25T14:53:58;10.00;99.90
42803;DHT22;28447;48.682;9.022;2023-04-25T14:56:24;10.30;99.90
42803;DHT22;28447;48.682;9.022;2023-04-25T14:58:50;9.90;99.90
42803;DHT22;28447;48.682;9.022;2023-04-25T15:01:15;10.00;99.90
42803;DHT22;28447;48.682;9.022;2023-04-25T15:03:41;10.50;99.90
42803;DHT22;28447;48.682;9.022;2023-04-25T15:06:09;11.60;99.90
42803;DHT22;28447;48.682;9.022;2023-04-25T15:08:34;12.40;99.90
42803;DHT22;28447;48.682;9.022;2023-04-25T15:11:01;13.20;99.90
42803;DHT22;28447;48.682;9.022;2023-04-25T15:18:23;16.30;99.90
42803;DHT22;28447;48.682;9.022;2023-04-25T15:20:52;16.30;99.90
42803;DHT22;28447;48.682;9.022;2023-04-25T15:23:19;13.40;99.90
42803;DHT22;28447;48.682;9.022;2023-04-25T15:25:45;12.70;99.90
42803;DHT22;28447;48.682;9.022;2023-04-25T15:28:13;13.20;99.90
42803;DHT22;28447;48.682;9.022;2023-04-25T15:30:41;14.30;99.90
42803;DHT22;28447;48.682;9.022;2023-04-25T15:33:06;14.50;99.90
42803;DHT22;28447;48.682;9.022;2023-04-25T15:35:32;14.00;99.90
42803;DHT22;28447;48.682;9.022;2023-04-25T15:38:18;13.40;99.90
42803;DHT22;28447;48.682;9.022;2023-04-25T15:40:44;12.20;99.90
42803;DHT22;28447;48.682;9.022;2023-04-25T15:43:10;12.10;99.90
42803;DHT22;28447;48.682;9.022;2023-04-25T15:45:40;12.80;99.90
42803;DHT22;28447;48.682;9.022;2023-04-25T15:48:06;13.10;99.90
42803;DHT22;28447;48.682;9.022;2023-04-25T15:50:32;12.70;99.90
42803;DHT22;28447;48.682;9.022;2023-04-25T15:52:57;11.30;99.90
42803;DHT22;28447;48.682;9.022;2023-04-25T15:55:24;11.40;99.90
42803;DHT22;28447;48.682;9.022;2023-04-25T15:57:51;12.50;99.90
42803;DHT22;28447;48.682;9.022;2023-04-25T18:57:06;7.10;99.90
42803;DHT22;28447;48.682;9.022;2023-04-25T18:59:32;7.20;99.90
42803;DHT22;28447;48.682;9.022;2023-04-25T19:01:58;7.30;99.90
42803;DHT22;28447;48.682;9.022;2023-04-25T19:06:52;7.10;99.90
42803;DHT22;28447;48.682;9.022;2023-04-25T19:09:18;7.10;99.90
42803;DHT22;28447;48.682;9.022;2023-04-25T19:11:44;7.00;99.90
42803;DHT22;28447;48.682;9.022;2023-04-25T19:14:11;7.10;99.90
42803;DHT22;28447;48.682;9.022;2023-04-25T19:16:37;7.20;99.90
42803;DHT22;28447;48.682;9.022;2023-04-25T19:19:04;7.20;99.90
42803;DHT22;28447;48.682;9.022;2023-04-25T19:21:31;7.10;99.90
42803;DHT22;28447;48.682;9.022;2023-04-25T19:23:58;7.20;99.90
42803;DHT22;28447;48.682;9.022;2023-04-25T19:26:24;7.20;99.90
42803;DHT22;28447;48.682;9.022;2023-04-25T19:31:34;7.20;99.90
42803;DHT22;28447;48.682;9.022;2023-04-25T19:34:00;7.20;99.90
42803;DHT22;28447;48.682;9.022;2023-04-25T19:36:26;7.20;99.90
42803;DHT22;28447;48.682;9.022;2023-04-25T19:38:53;7.30;99.90
42803;DHT22;28447;48.682;9.022;2023-04-25T19:41:20;7.30;99.90
42803;DHT22;28447;48.682;9.022;2023-04-25T19:43:45;7.20;99.90
42803;DHT22;28447;48.682;9.022;2023-04-25T19:46:12;7.20;99.90
42803;DHT22;28447;48.682;9.022;2023-04-25T19:48:37;7.10;99.90
42803;DHT22;28447;48.682;9.022;2023-04-25T19:51:03;7.00;99.90
42803;DHT22;28447;48.682;9.022;2023-04-25T19:53:29;7.10;99.90
42803;DHT22;28447;48.682;9.022;2023-04-25T19:55:54;7.30;99.90
42803;DHT22;28447;48.682;9.022;2023-04-25T19:58:20;7.30;99.90
42803;DHT22;28447;48.682;9.022;2023-04-25T20:00:46;7.20;99.90
42803;DHT22;28447;48.682;9.022;2023-04-25T20:03:11;7.20;99.90
42803;DHT22;28447;48.682;9.022;2023-04-25T20:05:37;7.20;99.90
42803;DHT22;28447;48.682;9.022;2023-04-25T20:08:03;7.10;99.90
